Time;durP1;ratioP1;P1;durP2;ratioP2;P2;SDS_P1;SDS_P2;PMS_P1;PMS_P2;Temp;Humidity;BMP_temperature;BMP_pressure;BME280_temperature;BME280_humidity;BME280_pressure;Samples;Min_cycle;Max_cycle;Signal;HPM_P1;HPM_P2
2023/07/02 00:01:16;;;;;;;22.15;7.38;;;;;;;15.91;100.00;100580.09;5015738;28;20040;-67
2023/07/02 00:03:41;;;;;;;22.58;7.80;;;;;;;15.90;100.00;100586.38;5016350;28;20033;-66
2023/07/02 00:06:06;;;;;;;21.30;7.88;;;;;;;15.90;100.00;100572.13;5015778;28;20439;-67
2023/07/02 00:08:32;;;;;;;21.98;7.90;;;;;;;15.89;100.00;100581.03;5015741;28;20123;-67
2023/07/02 00:10:57;;;;;;;21.40;7.47;;;;;;;15.84;100.00;100574.03;5015819;28;20608;-66
2023/07/02 00:13:22;;;;;;;22.52;8.20;;;;;;;15.83;100.00;100577.63;5015724;28;20018;-67
2023/07/02 00:15:48;;;;;;;21.73;8.55;;;;;;;15.81;100.00;100574.13;5015633;28;20033;-67
2023/07/02 00:18:16;;;;;;;22.60;9.13;;;;;;;15.81;100.00;100571.44;5015855;28;20030;-67
2023/07/02 00:20:42;;;;;;;21.50;8.13;;;;;;;15.84;100.00;100581.13;5011511;28;20022;-67
2023/07/02 00:23:11;;;;;;;23.25;8.35;;;;;;;15.82;100.00;100577.66;5015657;28;20076;-66
2023/07/02 00:25:37;;;;;;;22.40;8.25;;;;;;;15.81;100.00;100570.56;5015632;28;20157;-66
2023/07/02 00:28:02;;;;;;;23.48;9.20;;;;;;;15.79;100.00;100575.91;5015468;28;20112;-67
2023/07/02 00:30:28;;;;;;;22.23;8.98;;;;;;;15.77;100.00;100563.50;5015288;28;20037;-62
2023/07/02 00:32:54;;;;;;;23.77;9.30;;;;;;;15.77;100.00;100555.50;5015557;28;20026;-65
2023/07/02 00:35:19;;;;;;;23.88;8.70;;;;;;;15.77;100.00;100555.50;5015184;28;20044;-64
2023/07/02 00:37:44;;;;;;;24.95;9.43;;;;;;;15.74;100.00;100552.91;5015266;28;20030;-60
2023/07/02 00:40:10;;;;;;;25.35;9.60;;;;;;;15.70;100.00;100554.78;5015333;28;20037;-65
2023/07/02 00:42:36;;;;;;;25.48;10.18;;;;;;;15.69;100.00;100553.88;5015286;28;20069;-65
2023/07/02 00:45:04;;;;;;;25.10;9.80;;;;;;;15.69;100.00;100550.34;4997869;28;20022;-64
2023/07/02 00:47:33;;;;;;;25.35;10.43;;;;;;;15.66;100.00;100563.75;5015168;28;20043;-65
2023/07/02 00:49:59;;;;;;;24.70;10.60;;;;;;;15.64;100.00;100570.88;5014940;28;20140;-62
2023/07/02 00:52:25;;;;;;;25.02;11.02;;;;;;;15.62;100.00;100578.91;5014963;28;20034;-61
2023/07/02 00:54:51;;;;;;;25.85;10.98;;;;;;;15.61;100.00;100582.50;5015123;28;20080;-65
2023/07/02 00:57:16;;;;;;;25.48;11.07;;;;;;;15.59;100.00;100581.63;5014939;28;20034;-64
2023/07/02 00:59:42;;;;;;;26.60;11.32;;;;;;;15.56;100.00;100591.47;5015222;28;20522;-65
2023/07/02 01:02:07;;;;;;;26.15;11.45;;;;;;;15.50;100.00;100589.81;5014828;28;20025;-65
2023/07/02 01:04:32;;;;;;;26.65;11.88;;;;;;;15.44;100.00;100592.63;5014728;28;20401;-65
2023/07/02 01:06:58;;;;;;;25.10;11.60;;;;;;;15.39;100.00;100594.47;5014793;28;20384;-61
2023/07/02 01:09:27;;;;;;;25.20;11.73;;;;;;;15.39;100.00;100595.38;5014097;28;20034;-64
2023/07/02 01:11:58;;;;;;;26.40;12.02;;;;;;;15.35;100.00;100596.34;5014541;28;20384;-63
2023/07/02 01:14:28;;;;;;;27.90;12.60;;;;;;;15.31;100.00;100592.84;5014800;28;20439;-66
2023/07/02 01:16:55;;;;;;;27.65;12.80;;;;;;;15.27;100.00;100596.44;5014916;28;20431;-67
2023/07/02 01:19:52;;;;;;;27.00;12.88;;;;;;;15.24;100.00;100603.63;5014462;28;20033;-67
2023/07/02 01:22:20;;;;;;;27.85;13.00;;;;;;;15.20;100.00;100599.28;5011198;28;20054;-67
2023/07/02 01:24:47;;;;;;;28.65;13.50;;;;;;;15.14;100.00;100594.94;5014382;28;20018;-67
2023/07/02 01:27:14;;;;;;;28.08;13.80;;;;;;;15.14;100.00;100610.91;5010791;28;20028;-67
2023/07/02 01:29:40;;;;;;;30.90;14.35;;;;;;;15.11;100.00;100605.66;5014671;28;20026;-67
2023/07/02 01:32:06;;;;;;;31.85;14.30;;;;;;;15.09;100.00;100610.13;5014180;28;20034;-67
2023/07/02 01:34:32;;;;;;;29.73;14.48;;;;;;;15.07;100.00;100619.91;5014434;28;20439;-67
2023/07/02 01:36:57;;;;;;;30.85;14.40;;;;;;;15.06;100.00;100612.84;5014108;28;20037;-66
2023/07/02 01:39:23;;;;;;;30.30;14.35;;;;;;;15.04;100.00;100612.84;5014090;28;20040;-67
2023/07/02 01:41:54;;;;;;;29.88;15.18;;;;;;;15.06;100.00;100618.19;5014277;28;20034;-67
2023/07/02 01:44:20;;;;;;;30.52;15.00;;;;;;;15.03;100.00;100613.78;5014184;28;20543;-66
2023/07/02 01:46:50;;;;;;;28.58;14.77;;;;;;;15.00;100.00;100616.50;5014013;28;20416;-67
2023/07/02 01:49:16;;;;;;;29.58;15.07;;;;;;;14.98;100.00;100611.19;5010464;28;20030;-66
2023/07/02 01:51:45;;;;;;;28.85;14.65;;;;;;;14.95;100.00;100619.22;5010288;28;20361;-67
2023/07/02 01:54:10;;;;;;;31.65;15.20;;;;;;;14.95;100.00;100624.53;5013827;28;20038;-67
2023/07/02 01:56:35;;;;;;;28.75;14.85;;;;;;;14.91;100.00;100617.53;5013714;28;20489;-66
2023/07/02 01:59:01;;;;;;;31.13;16.00;;;;;;;14.86;100.00;100615.84;5014170;28;20390;-67
2023/07/02 02:01:26;;;;;;;31.25;15.80;;;;;;;14.86;100.00;100618.50;5013599;28;20491;-63
2023/07/02 02:03:52;;;;;;;31.15;16.27;;;;;;;14.80;100.00;100619.50;5013867;28;20030;-66
2023/07/02 02:06:17;;;;;;;32.63;15.98;;;;;;;14.78;100.00;100621.28;5013620;28;20085;-62
2023/07/02 02:08:42;;;;;;;34.10;16.50;;;;;;;14.78;100.00;100618.63;5013573;28;20481;-65
2023/07/02 02:11:08;;;;;;;32.42;15.68;;;;;;;14.79;100.00;100615.97;5013632;28;20034;-66
2023/07/02 02:13:33;;;;;;;33.70;15.93;;;;;;;14.79;100.00;100623.94;5013451;28;20032;-65
2023/07/02 02:15:58;;;;;;;31.80;16.13;;;;;;;14.76;100.00;100623.09;5013424;28;20033;-66
2023/07/02 02:18:24;;;;;;;33.15;16.35;;;;;;;14.74;100.00;100619.59;5013567;28;20472;-66
2023/07/02 02:20:49;;;;;;;30.35;15.88;;;;;;;14.69;100.00;100624.97;5012304;28;20576;-65
2023/07/02 02:23:14;;;;;;;32.38;16.50;;;;;;;14.64;100.00;100624.19;5013396;28;20485;-65
2023/07/02 02:25:40;;;;;;;31.02;16.20;;;;;;;14.55;100.00;100619.00;5013459;28;20034;-61
2023/07/02 02:28:05;;;;;;;30.77;16.27;;;;;;;14.49;100.00;100630.59;5013179;28;20037;-66
2023/07/02 02:30:30;;;;;;;30.80;16.23;;;;;;;14.41;100.00;100627.16;5013378;28;20030;-63
2023/07/02 02:32:56;;;;;;;33.67;17.10;;;;;;;14.30;100.00;100624.69;5013368;28;20030;-66
2023/07/02 02:35:22;;;;;;;31.25;16.63;;;;;;;14.20;100.00;100634.56;5013412;28;20061;-66
2023/07/02 02:37:47;;;;;;;34.40;17.25;;;;;;;14.12;100.00;100625.78;5013261;28;20041;-66
2023/07/02 02:40:13;;;;;;;32.65;17.10;;;;;;;14.06;100.00;100636.50;5013138;28;20026;-66
2023/07/02 02:42:39;;;;;;;34.25;18.15;;;;;;;14.00;100.00;100640.13;5012932;28;20056;-65
2023/07/02 02:45:05;;;;;;;33.42;16.63;;;;;;;13.94;100.00;100643.75;5013212;28;20036;-66
2023/07/02 02:47:30;;;;;;;33.70;17.92;;;;;;;13.92;100.00;100642.00;5012951;28;20034;-67
2023/07/02 02:49:55;;;;;;;34.47;18.02;;;;;;;13.91;100.00;100642.91;5013132;28;20172;-67
2023/07/02 02:52:21;;;;;;;33.00;17.42;;;;;;;13.87;100.00;100646.50;5013174;28;20053;-66
2023/07/02 02:54:46;;;;;;;34.33;18.15;;;;;;;13.81;100.00;100642.13;5012846;28;20025;-67
2023/07/02 02:57:13;;;;;;;35.22;18.83;;;;;;;13.78;100.00;100652.81;5013071;28;20044;-67
2023/07/02 02:59:38;;;;;;;35.97;18.55;;;;;;;13.75;100.00;100652.84;5012928;28;20076;-67
2023/07/02 03:02:04;;;;;;;35.33;18.88;;;;;;;13.75;100.00;100658.16;5012904;28;20038;-67
2023/07/02 03:04:29;;;;;;;35.83;19.17;;;;;;;13.72;100.00;100664.38;5012765;28;20477;-67
2023/07/02 03:06:55;;;;;;;34.28;18.17;;;;;;;13.71;100.00;100664.41;5012874;28;20030;-67
2023/07/02 03:09:21;;;;;;;34.55;18.27;;;;;;;13.65;100.00;100670.66;5012995;28;20057;-66
2023/07/02 03:11:47;;;;;;;32.20;19.02;;;;;;;13.60;100.00;100673.38;5012607;28;20045;-66
2023/07/02 03:14:12;;;;;;;35.65;19.42;;;;;;;13.59;100.00;100678.69;5012970;28;20062;-67
2023/07/02 03:16:38;;;;;;;35.90;19.35;;;;;;;13.58;100.00;100679.59;5012589;28;20060;-67
2023/07/02 03:19:03;;;;;;;35.78;18.95;;;;;;;13.58;100.00;100680.47;5012733;28;20105;-65
2023/07/02 03:21:29;;;;;;;34.83;17.98;;;;;;;13.61;100.00;100684.88;5012405;28;20058;-67
2023/07/02 03:23:55;;;;;;;35.22;18.67;;;;;;;13.64;100.00;100686.63;5012901;28;20064;-67
2023/07/02 03:26:21;;;;;;;33.25;17.55;;;;;;;13.68;100.00;100683.91;5012742;28;20034;-67
2023/07/02 03:28:46;;;;;;;33.38;18.27;;;;;;;13.71;100.00;100683.88;4995175;28;20061;-67
2023/07/02 03:31:12;;;;;;;34.72;18.20;;;;;;;13.71;100.00;100683.88;5013769;28;20132;-66
2023/07/02 03:33:37;;;;;;;35.42;18.55;;;;;;;13.69;100.00;100690.09;5016643;28;20034;-66
2023/07/02 03:36:02;;;;;;;33.08;17.35;;;;;;;13.65;100.00;100691.03;5016405;28;20125;-66
2023/07/02 03:38:28;;;;;;;33.20;18.10;;;;;;;13.59;100.00;100695.50;5016365;28;20058;-66
2023/07/02 03:40:53;;;;;;;32.75;17.60;;;;;;;13.57;100.00;100692.00;5016506;28;20080;-66
2023/07/02 03:43:19;;;;;;;32.15;16.60;;;;;;;13.53;100.00;100694.72;5016233;28;20432;-63
2023/07/02 03:45:44;;;;;;;31.05;16.15;;;;;;;13.49;100.00;100696.50;5016273;28;20122;-66
2023/07/02 03:48:09;;;;;;;30.20;15.25;;;;;;;13.51;100.00;100694.69;5016627;28;20065;-65
2023/07/02 03:50:35;;;;;;;36.05;15.57;;;;;;;13.49;100.00;100698.28;5016012;28;20034;-66
2023/07/02 03:53:00;;;;;;;31.60;14.80;;;;;;;13.47;100.00;100700.06;5016290;28;20033;-66
2023/07/02 03:55:25;;;;;;;28.77;14.50;;;;;;;13.48;100.00;100694.72;5016150;28;20507;-66
2023/07/02 03:57:51;;;;;;;29.58;14.63;;;;;;;13.52;100.00;100703.56;5016243;28;20029;-66
2023/07/02 04:00:16;;;;;;;32.72;13.95;;;;;;;13.53;100.00;100698.22;5016115;28;20038;-66
2023/07/02 04:02:42;;;;;;;30.55;13.90;;;;;;;13.55;100.00;100707.03;5015920;28;20053;-66
2023/07/02 04:05:07;;;;;;;29.30;13.95;;;;;;;13.53;100.00;100706.19;5015856;28;20113;-66
2023/07/02 04:07:33;;;;;;;28.15;12.93;;;;;;;13.54;100.00;100702.66;5016007;28;20018;-65
2023/07/02 04:09:58;;;;;;;29.70;13.45;;;;;;;13.57;100.00;100701.72;5015681;28;20030;-67
2023/07/02 04:12:23;;;;;;;28.67;13.50;;;;;;;13.56;100.00;100702.63;5015732;28;20097;-67
2023/07/02 04:14:49;;;;;;;29.42;12.52;;;;;;;13.53;100.00;100706.19;5016106;28;20030;-66
2023/07/02 04:17:14;;;;;;;27.23;12.50;;;;;;;13.54;100.00;100712.38;5015721;28;20026;-65
2023/07/02 04:19:40;;;;;;;28.08;12.77;;;;;;;13.51;100.00;100713.28;5015531;28;20029;-66
2023/07/02 04:22:05;;;;;;;26.52;12.07;;;;;;;13.54;100.00;100709.72;5015498;28;20046;-66
2023/07/02 04:24:31;;;;;;;28.02;11.90;;;;;;;13.55;100.00;100715.00;5015735;28;20045;-66
2023/07/02 04:26:56;;;;;;;28.00;12.20;;;;;;;13.56;100.00;100716.78;5015451;28;20033;-63
2023/07/02 04:29:21;;;;;;;26.83;12.10;;;;;;;13.59;100.00;100714.09;5015879;28;20030;-67
2023/07/02 04:31:47;;;;;;;29.70;12.18;;;;;;;13.67;100.00;100715.78;5015298;28;20112;-67
2023/07/02 04:34:12;;;;;;;26.52;12.30;;;;;;;13.76;100.00;100713.94;5015533;28;20061;-67
2023/07/02 04:36:37;;;;;;;26.55;12.10;;;;;;;13.80;100.00;100717.41;5015313;28;20441;-67
2023/07/02 04:39:03;;;;;;;27.75;12.38;;;;;;;13.82;100.00;100720.06;5015312;28;20511;-68
2023/07/02 04:41:29;;;;;;;29.65;13.05;;;;;;;13.81;100.00;100719.19;5015342;28;20072;-67
2023/07/02 04:43:55;;;;;;;27.65;12.93;;;;;;;13.83;100.00;100714.72;5014226;28;20113;-68
2023/07/02 04:46:20;;;;;;;27.75;12.65;;;;;;;13.84;100.00;100724.47;5015134;28;20476;-66
2023/07/02 04:48:45;;;;;;;29.83;12.95;;;;;;;13.87;100.00;100729.75;5015568;28;20040;-68
2023/07/02 04:51:11;;;;;;;28.48;13.25;;;;;;;13.94;100.00;100730.56;5015020;28;20045;-68
2023/07/02 04:53:37;;;;;;;29.88;13.23;;;;;;;14.01;100.00;100734.00;5014942;28;20022;-66
2023/07/02 04:56:03;;;;;;;28.48;13.52;;;;;;;14.07;100.00;100736.63;5015110;28;20038;-67
2023/07/02 04:58:28;;;;;;;30.13;13.27;;;;;;;14.14;100.00;100740.97;5014881;28;20029;-67
2023/07/02 05:00:53;;;;;;;28.05;13.18;;;;;;;14.25;100.00;100747.00;5014802;28;20066;-67
2023/07/02 05:03:19;;;;;;;28.95;13.05;;;;;;;14.35;100.00;100744.25;5015097;28;20030;-68
2023/07/02 05:05:44;;;;;;;30.02;12.73;;;;;;;14.40;100.00;100747.72;5015017;28;20033;-68
2023/07/02 05:08:10;;;;;;;30.45;12.93;;;;;;;14.47;100.00;100744.97;5014706;28;20112;-63
2023/07/02 05:10:35;;;;;;;28.15;12.80;;;;;;;14.52;100.00;100744.00;5015008;28;20034;-67
2023/07/02 05:13:01;;;;;;;26.45;12.30;;;;;;;14.51;100.00;100745.81;5014746;28;20026;-65
2023/07/02 05:15:26;;;;;;;26.65;12.05;;;;;;;14.52;100.00;100746.66;5014799;28;20440;-65
2023/07/02 05:17:52;;;;;;;26.73;11.73;;;;;;;14.51;100.00;100760.88;5014555;28;20026;-68
2023/07/02 05:20:17;;;;;;;27.95;11.50;;;;;;;14.48;100.00;100754.69;5014506;28;20030;-67
2023/07/02 05:22:42;;;;;;;29.70;12.43;;;;;;;14.50;100.00;100757.34;5014461;28;20061;-66
2023/07/02 05:25:08;;;;;;;27.52;11.32;;;;;;;14.59;100.00;100765.22;5014397;28;20034;-66
2023/07/02 05:27:34;;;;;;;27.63;10.80;;;;;;;14.71;100.00;100765.94;5014583;28;20034;-67
2023/07/02 05:29:59;;;;;;;26.20;10.45;;;;;;;14.78;100.00;100764.97;5014684;28;20038;-64
2023/07/02 05:32:24;;;;;;;27.23;10.55;;;;;;;14.82;100.00;100767.59;5014307;28;20389;-66
2023/07/02 05:34:50;;;;;;;25.33;10.07;;;;;;;14.88;100.00;100769.28;5014238;28;20069;-67
2023/07/02 05:37:15;;;;;;;26.02;10.20;;;;;;;14.93;100.00;100774.53;5014441;28;20069;-67
2023/07/02 05:39:41;;;;;;;25.55;10.10;;;;;;;14.97;100.00;100778.91;5014068;28;20033;-67
2023/07/02 05:42:06;;;;;;;26.33;10.02;;;;;;;15.01;100.00;100769.94;5014028;28;20030;-61
2023/07/02 05:44:31;;;;;;;25.88;9.95;;;;;;;15.09;100.00;100776.03;5014162;28;20033;-67
2023/07/02 05:46:57;;;;;;;26.05;9.38;;;;;;;15.17;100.00;100778.56;5013966;28;20030;-61
2023/07/02 05:49:22;;;;;;;25.92;9.50;;;;;;;15.27;100.00;100784.66;5014426;28;20389;-61
2023/07/02 05:51:48;;;;;;;25.05;9.30;;;;;;;15.34;100.00;100786.31;5013839;28;20030;-60
2023/07/02 05:54:13;;;;;;;26.73;9.52;;;;;;;15.43;100.00;100785.28;5011238;28;20038;-59
2023/07/02 05:56:38;;;;;;;25.42;8.70;;;;;;;15.46;100.00;100794.09;5009560;28;20049;-65
2023/07/02 05:59:04;;;;;;;24.27;8.02;;;;;;;15.54;100.00;100780.66;5003137;28;20045;-65
2023/07/02 06:01:29;;;;;;;24.45;8.65;;;;;;;15.59;100.00;100796.56;5003464;28;20032;-67
2023/07/02 06:03:54;;;;;;;23.33;8.40;;;;;;;15.70;100.00;100791.94;5004707;28;20432;-65
2023/07/02 06:06:23;;;;;;;24.40;8.38;;;;;;;15.83;100.00;100795.28;5013575;28;20100;-66
2023/07/02 06:08:48;;;;;;;25.55;8.65;;;;;;;15.93;100.00;100795.97;5013488;28;20038;-65
2023/07/02 06:11:13;;;;;;;25.42;8.25;;;;;;;15.99;100.00;100801.22;5013508;28;20033;-66
2023/07/02 06:13:39;;;;;;;24.08;8.00;;;;;;;15.93;100.00;100802.22;5013291;28;20030;-65
2023/07/02 06:16:04;;;;;;;24.30;8.25;;;;;;;15.85;100.00;100804.13;5013358;28;20037;-65
2023/07/02 06:18:29;;;;;;;24.35;7.82;;;;;;;15.76;100.00;100804.25;5013085;28;20029;-65
2023/07/02 06:20:55;;;;;;;24.02;8.30;;;;;;;15.67;100.00;100807.97;5013296;28;20497;-68
2023/07/02 06:23:21;;;;;;;24.65;8.38;;;;;;;15.77;100.00;100811.34;5013050;28;20105;-61
2023/07/02 06:25:47;;;;;;;22.88;8.02;;;;;;;15.86;100.00;100812.09;5015949;28;20463;-67
2023/07/02 06:28:12;;;;;;;24.98;7.80;;;;;;;15.97;100.00;100813.69;5016063;28;20484;-67
2023/07/02 06:30:37;;;;;;;25.00;7.75;;;;;;;16.04;100.00;100807.31;5010105;28;20037;-68
2023/07/02 06:33:03;;;;;;;22.90;7.57;;;;;;;16.13;100.00;100820.47;5017592;28;20103;-68
2023/07/02 06:35:28;;;;;;;22.83;7.93;;;;;;;16.35;100.00;100828.06;5014260;28;20503;-69
2023/07/02 06:37:54;;;;;;;23.58;7.60;;;;;;;16.45;100.00;100826.97;5016440;28;20030;-67
2023/07/02 06:40:20;;;;;;;24.23;7.85;;;;;;;16.51;100.00;100825.97;5012940;28;20029;-65
2023/07/02 06:42:46;;;;;;;23.48;7.40;;;;;;;16.57;100.00;100831.16;5024635;28;20025;-70
2023/07/02 06:45:11;;;;;;;23.33;7.38;;;;;;;16.65;100.00;100828.34;5013639;28;20475;-69
2023/07/02 06:47:37;;;;;;;25.48;7.45;;;;;;;16.73;100.00;100829.94;5017131;28;20033;-70
2023/07/02 06:50:02;;;;;;;23.42;7.20;;;;;;;16.95;100.00;100834.88;4996285;28;20431;-70
2023/07/02 06:52:28;;;;;;;22.50;7.00;;;;;;;17.00;100.00;100829.41;5016210;28;20080;-70
2023/07/02 06:54:53;;;;;;;23.67;7.82;;;;;;;16.99;100.00;100838.31;5012169;28;20030;-67
2023/07/02 06:57:20;;;;;;;22.85;7.50;;;;;;;17.05;100.00;100843.53;5021498;28;20033;-67
2023/07/02 06:59:45;;;;;;;24.45;7.88;;;;;;;17.02;100.00;100844.50;5012616;28;20097;-68
2023/07/02 07:02:11;;;;;;;21.95;6.90;;;;;;;17.04;100.00;100841.78;5016082;28;20133;-69
2023/07/02 07:04:36;;;;;;;22.85;6.85;;;;;;;17.09;100.00;100845.22;5012344;28;20045;-70
2023/07/02 07:07:05;;;;;;;24.45;7.50;;;;;;;17.02;100.00;100855.16;5023432;28;20018;-69
2023/07/02 07:09:31;;;;;;;23.73;8.05;;;;;;;17.04;100.00;100855.13;5013741;28;20022;-70
2023/07/02 07:11:56;;;;;;;23.27;7.72;;;;;;;17.19;100.00;100852.09;5013463;28;20045;-72
2023/07/02 07:14:21;;;;;;;22.40;7.07;;;;;;;17.35;100.00;100860.63;5012750;28;20030;-71
2023/07/02 07:16:47;;;;;;;22.08;6.72;;;;;;;17.39;100.00;100862.31;4995021;28;20058;-70
2023/07/02 07:19:12;;;;;;;24.10;6.97;;;;;;;17.40;100.00;100864.09;5012222;28;20057;-71
2023/07/02 07:21:37;;;;;;;22.08;7.35;;;;;;;17.49;100.00;100860.31;5012378;28;20054;-70
2023/07/02 07:24:03;;;;;;;22.95;6.80;;;;;;;17.68;100.00;100866.09;5012733;28;20034;-70
2023/07/02 07:26:28;;;;;;;21.55;6.57;;;;;;;17.61;100.00;100859.16;5012747;28;20393;-68
2023/07/02 07:28:57;;;;;;;21.58;6.65;;;;;;;17.51;100.00;100862.97;5011070;28;20490;-68
2023/07/02 07:31:23;;;;;;;22.50;6.90;;;;;;;17.68;100.00;100870.53;5011656;28;20053;-68
2023/07/02 07:33:48;;;;;;;22.13;6.88;;;;;;;17.83;100.00;100880.00;5011595;28;20041;-69
2023/07/02 07:36:14;;;;;;;22.40;7.00;;;;;;;17.77;100.00;100884.56;5008826;28;20121;-70
2023/07/02 07:38:39;;;;;;;20.85;6.40;;;;;;;17.72;94.29;100889.16;5003190;28;20034;-63
2023/07/02 07:41:04;;;;;;;20.85;6.00;;;;;;;17.67;94.15;100898.22;4983891;28;20149;-67
2023/07/02 07:43:30;;;;;;;21.33;6.28;;;;;;;17.65;92.55;100894.69;5015153;28;20469;-67
2023/07/02 07:45:55;;;;;;;20.67;6.30;;;;;;;17.54;88.45;100916.31;5012353;28;20026;-68
2023/07/02 07:48:21;;;;;;;22.23;5.88;;;;;;;17.48;88.79;100909.31;5012468;28;20057;-67
2023/07/02 07:50:47;;;;;;;21.38;6.38;;;;;;;17.56;89.83;100912.72;5012160;28;20469;-68
2023/07/02 07:53:12;;;;;;;21.58;5.90;;;;;;;17.68;85.55;100902.63;5012355;28;20106;-67
2023/07/02 07:55:37;;;;;;;22.13;6.45;;;;;;;17.68;85.40;100900.84;5011823;28;20026;-67
2023/07/02 07:58:03;;;;;;;21.02;6.05;;;;;;;17.73;87.14;100904.25;5012278;28;20026;-62
2023/07/02 08:00:28;;;;;;;20.88;6.22;;;;;;;17.89;87.54;100907.44;5012270;28;20037;-68
2023/07/02 08:02:55;;;;;;;22.35;6.60;;;;;;;18.06;85.73;100906.19;5012165;28;20027;-64
2023/07/02 08:05:21;;;;;;;21.27;6.07;;;;;;;18.15;89.21;100892.56;5012016;28;20042;-68
2023/07/02 08:07:46;;;;;;;23.08;6.95;;;;;;;18.40;86.55;100899.94;5015625;28;20083;-61
2023/07/02 08:10:11;;;;;;;22.92;6.68;;;;;;;18.49;83.60;100904.16;5012088;28;20402;-63
2023/07/02 08:12:37;;;;;;;21.80;6.25;;;;;;;18.60;80.91;100896.72;5012150;28;20026;-66
2023/07/02 08:15:02;;;;;;;21.02;6.10;;;;;;;18.62;75.23;100906.47;5015902;28;20026;-65
2023/07/02 08:17:30;;;;;;;21.65;6.78;;;;;;;18.38;78.00;100904.47;5012381;28;20022;-67
2023/07/02 08:19:56;;;;;;;20.42;5.97;;;;;;;18.42;78.08;100906.09;5017668;28;20548;-68
2023/07/02 08:22:21;;;;;;;20.75;6.25;;;;;;;18.52;77.18;100912.09;5007578;28;20054;-71
2023/07/02 08:24:49;;;;;;;21.42;6.43;;;;;;;18.32;76.96;100918.88;4990834;28;20121;-67
2023/07/02 08:27:16;;;;;;;21.98;6.45;;;;;;;18.33;77.78;100911.72;4986205;28;20107;-67
2023/07/02 08:29:41;;;;;;;21.15;6.20;;;;;;;18.46;76.65;100918.50;4986744;28;20030;-68
2023/07/02 08:32:07;;;;;;;20.83;6.18;;;;;;;18.45;77.69;100922.97;4984845;28;20049;-69
2023/07/02 08:34:32;;;;;;;22.02;6.85;;;;;;;18.50;81.81;100919.31;4987235;28;20027;-68
2023/07/02 08:36:58;;;;;;;20.65;6.07;;;;;;;18.59;72.76;100924.38;4970012;28;20085;-67
2023/07/02 08:39:23;;;;;;;20.00;6.35;;;;;;;18.84;73.25;100939.75;4987520;28;20030;-66
2023/07/02 08:41:48;;;;;;;21.05;6.22;;;;;;;18.77;71.12;100934.59;4984133;28;20023;-69
2023/07/02 08:44:18;;;;;;;20.92;6.18;;;;;;;18.89;67.46;100933.41;4969855;28;20035;-71
2023/07/02 08:46:44;;;;;;;20.95;6.22;;;;;;;19.01;66.20;100929.47;4986965;28;20026;-67
2023/07/02 08:49:09;;;;;;;20.48;5.50;;;;;;;19.03;60.13;100930.28;4987332;28;20025;-67
2023/07/02 08:51:35;;;;;;;20.23;5.90;;;;;;;18.94;61.48;100925.22;4984291;28;20062;-66
2023/07/02 08:54:01;;;;;;;20.60;5.78;;;;;;;19.01;58.83;100942.00;4986519;28;20034;-62
2023/07/02 08:56:27;;;;;;;19.63;5.78;;;;;;;19.02;59.99;100933.03;4987723;28;20037;-67
2023/07/02 08:58:53;;;;;;;20.17;5.55;;;;;;;19.03;62.00;100930.28;5001050;28;20034;-66
2023/07/02 09:01:19;;;;;;;19.63;5.70;;;;;;;19.32;61.62;100939.25;4986919;28;20034;-61
2023/07/02 09:03:44;;;;;;;19.20;5.55;;;;;;;19.10;57.19;100939.91;4987588;28;20030;-62
2023/07/02 09:06:11;;;;;;;20.45;6.03;;;;;;;19.03;56.87;100924.94;4987533;28;20070;-65
2023/07/02 09:08:37;;;;;;;19.80;5.63;;;;;;;19.50;57.45;100940.53;4983994;28;20027;-61
2023/07/02 09:11:10;;;;;;;19.63;5.43;;;;;;;19.49;55.28;100934.25;4988540;28;20037;-61
2023/07/02 09:14:00;;;;;;;19.92;5.45;;;;;;;18.85;57.03;100929.00;4987915;28;20026;-65
2023/07/02 09:16:31;;;;;;;20.58;6.10;;;;;;;18.64;57.33;100934.06;4986415;28;20030;-67
2023/07/02 09:19:07;;;;;;;18.83;5.78;;;;;;;18.64;60.45;100935.88;4983862;28;20045;-67
2023/07/02 09:21:45;;;;;;;20.25;5.55;;;;;;;18.79;58.07;100932.72;4987879;28;20057;-62
2023/07/02 09:24:13;;;;;;;19.92;5.78;;;;;;;19.19;58.46;100937.88;4991739;28;20355;-61
2023/07/02 09:26:53;;;;;;;20.77;5.93;;;;;;;19.54;57.98;100938.59;4977329;28;20026;-61
2023/07/02 09:29:29;;;;;;;19.52;5.63;;;;;;;19.76;57.02;100931.66;4994453;28;20022;-62
2023/07/02 09:31:56;;;;;;;20.20;6.00;;;;;;;19.87;60.29;100920.59;4991269;28;20034;-67
2023/07/02 09:34:36;;;;;;;20.42;6.10;;;;;;;20.14;57.67;100921.47;4990729;28;20112;-62
2023/07/02 09:37:04;;;;;;;20.52;5.97;;;;;;;20.27;55.41;100926.41;4991927;28;20057;-63
2023/07/02 09:39:32;;;;;;;21.55;6.15;;;;;;;20.01;56.66;100922.81;4994784;28;20385;-64
2023/07/02 09:41:59;;;;;;;19.65;5.60;;;;;;;20.20;57.85;100923.06;4994698;28;20046;-67
2023/07/02 09:44:29;;;;;;;20.98;6.10;;;;;;;20.26;56.18;100935.41;4994526;28;20093;-66
2023/07/02 09:47:01;;;;;;;21.15;6.10;;;;;;;19.63;57.21;100936.53;4990924;28;20030;-66
2023/07/02 09:49:31;;;;;;;21.35;6.13;;;;;;;19.26;61.16;100937.66;4991324;28;20057;-66
2023/07/02 09:51:56;;;;;;;19.55;5.85;;;;;;;19.21;60.18;100918.16;4994345;28;20066;-62
2023/07/02 09:54:22;;;;;;;21.40;6.10;;;;;;;19.41;59.49;100922.91;4990336;28;20482;-65
2023/07/02 09:56:47;;;;;;;21.30;6.32;;;;;;;19.38;62.17;100930.16;4994364;28;20119;-67
2023/07/02 09:59:14;;;;;;;20.55;6.18;;;;;;;19.32;60.70;100926.75;4994330;28;20026;-66
2023/07/02 10:01:39;;;;;;;22.02;6.20;;;;;;;19.33;64.51;100928.50;4994070;28;20043;-67
2023/07/02 10:04:15;;;;;;;20.00;6.10;;;;;;;19.60;61.79;100941.09;4994315;28;20378;-61
2023/07/02 10:06:48;;;;;;;22.23;6.28;;;;;;;19.78;61.31;100945.91;4994261;28;20030;-65
2023/07/02 10:09:15;;;;;;;19.85;6.15;;;;;;;19.88;58.06;100950.94;4994046;28;20034;-64
2023/07/02 10:11:40;;;;;;;19.13;6.30;;;;;;;19.91;58.89;100937.47;4993855;28;20034;-68
2023/07/02 10:14:05;;;;;;;20.48;6.18;;;;;;;19.72;58.89;100954.13;4994060;28;20069;-67
2023/07/02 10:16:31;;;;;;;22.73;6.53;;;;;;;19.40;58.08;100956.00;4993919;28;20061;-63
2023/07/02 10:19:13;;;;;;;21.48;6.35;;;;;;;19.10;60.41;100957.78;4993805;28;20061;-62
2023/07/02 10:21:38;;;;;;;20.15;6.22;;;;;;;19.16;62.49;100954.94;4997224;28;20041;-67
2023/07/02 10:24:14;;;;;;;21.02;6.35;;;;;;;19.21;60.85;100954.78;5013381;28;20034;-62
2023/07/02 10:26:54;;;;;;;20.02;6.25;;;;;;;19.23;62.96;100958.31;5013304;28;20026;-67
2023/07/02 10:29:21;;;;;;;21.20;6.15;;;;;;;19.01;61.18;100953.59;5013249;28;20103;-67
2023/07/02 10:31:50;;;;;;;22.92;6.78;;;;;;;18.97;62.11;100954.59;5013169;28;20112;-68
2023/07/02 10:34:16;;;;;;;20.90;6.30;;;;;;;19.89;60.25;100958.09;5013428;28;20030;-69
2023/07/02 10:36:41;;;;;;;21.42;6.45;;;;;;;20.66;57.14;100952.75;5013457;28;20030;-69
2023/07/02 10:39:08;;;;;;;20.98;6.38;;;;;;;21.48;57.32;100963.16;5013140;28;20420;-69
2023/07/02 10:41:34;;;;;;;21.48;6.63;;;;;;;20.66;55.25;100959.06;5012499;28;20034;-69
2023/07/02 10:44:07;;;;;;;21.52;6.63;;;;;;;19.86;57.46;100964.41;5013117;28;20038;-68
2023/07/02 10:46:33;;;;;;;20.83;6.13;;;;;;;19.58;61.94;100962.59;5013038;28;20018;-69
2023/07/02 10:48:58;;;;;;;21.77;7.07;;;;;;;19.64;59.87;100962.41;5013172;28;20033;-69
2023/07/02 10:51:24;;;;;;;20.67;6.65;;;;;;;19.78;58.13;100972.72;5012980;28;20080;-69
2023/07/02 10:53:59;;;;;;;21.17;7.03;;;;;;;19.90;60.31;100967.91;5012926;28;20026;-69
2023/07/02 10:56:28;;;;;;;22.10;6.97;;;;;;;19.84;60.49;100960.91;5000904;28;20036;-68
2023/07/02 10:58:54;;;;;;;20.60;6.65;;;;;;;19.88;58.90;100959.00;5003457;28;20057;-69
2023/07/02 11:01:27;;;;;;;22.85;7.07;;;;;;;20.18;59.67;100955.31;5001346;28;20552;-68
2023/07/02 11:04:01;;;;;;;21.90;6.93;;;;;;;20.81;60.75;100963.00;5003427;28;20037;-68
2023/07/02 11:06:28;;;;;;;22.50;7.40;;;;;;;22.31;52.95;100958.91;5002593;28;20486;-69